Terminal Aerodrome Forecast
Issued by NWS Wakefield, VA

Home | Current Version | Previous Version | Text Only | Print | Product List | Glossary On
Versions: 1 2 3 4 5 6 7 8 9 10 11 12 13 14 15 16 17 18 19 20 21 22 23 24 25 26 27 28 29 30
000
FTUS41 KAKQ 242300 RRA
TAFORF
TAF
KORF 242355Z 2500/2524 21011KT P6SM BKN060
      TEMPO 2500/2503 3SM -RA BR OVC025
     FM250300 22014G23KT 5SM -RA BR OVC035
     FM250700 23013G20KT 4SM -SHRA BR SCT020 BKN035
     FM251000 26012KT P6SM SCT015 OVC060
     FM251500 30012G20KT P6SM SKC=

USA.gov is the U.S. government's official web portal to all federal, state and local government web resources and services.